sensor_id;sensor_type;location;lat;lon;timestamp;P1;durP1;ratioP1;P2;durP2;ratioP2
51491;SDS011;37569;50.548;8.778;2022-12-05T00:00:54;33.6;;;18.9;;
51491;SDS011;37569;50.548;8.778;2022-12-05T00:05:54;31.4;;;18.2;;
51491;SDS011;37569;50.548;8.778;2022-12-05T00:10:54;30.9;;;18.8;;
51491;SDS011;37569;50.548;8.778;2022-12-05T00:15:54;35.2;;;20.1;;
51491;SDS011;37569;50.548;8.778;2022-12-05T00:20:56;31.2;;;18;;
51491;SDS011;37569;50.548;8.778;2022-12-05T00:25:55;32.6;;;19.8;;
51491;SDS011;37569;50.548;8.778;2022-12-05T00:30:55;32.5;;;18.8;;
51491;SDS011;37569;50.548;8.778;2022-12-05T00:35:59;30.9;;;17.8;;
51491;SDS011;37569;50.548;8.778;2022-12-05T00:40:55;31;;;18.1;;
51491;SDS011;37569;50.548;8.778;2022-12-05T00:45:55;30.4;;;18.4;;
51491;SDS011;37569;50.548;8.778;2022-12-05T00:50:59;30.9;;;18.2;;
51491;SDS011;37569;50.548;8.778;2022-12-05T00:56:00;28.1;;;17.1;;
51491;SDS011;37569;50.548;8.778;2022-12-05T01:00:56;31.2;;;18.2;;
51491;SDS011;37569;50.548;8.778;2022-12-05T01:05:57;31.5;;;18.2;;
51491;SDS011;37569;50.548;8.778;2022-12-05T01:10:57;29.4;;;17.9;;
51491;SDS011;37569;50.548;8.778;2022-12-05T01:15:56;24.1;;;16;;
51491;SDS011;37569;50.548;8.778;2022-12-05T01:20:57;26.6;;;16.4;;
51491;SDS011;37569;50.548;8.778;2022-12-05T01:25:57;26.7;;;15.8;;
51491;SDS011;37569;50.548;8.778;2022-12-05T01:30:57;25.8;;;16.1;;
51491;SDS011;37569;50.548;8.778;2022-12-05T01:35:57;27.9;;;16.8;;
51491;SDS011;37569;50.548;8.778;2022-12-05T01:40:58;27.3;;;17.4;;
51491;SDS011;37569;50.548;8.778;2022-12-05T01:45:57;25.8;;;16.7;;
51491;SDS011;37569;50.548;8.778;2022-12-05T01:50:58;26;;;16.7;;
51491;SDS011;37569;50.548;8.778;2022-12-05T01:55:58;30;;;18;;
51491;SDS011;37569;50.548;8.778;2022-12-05T02:00:58;28.4;;;17.5;;
51491;SDS011;37569;50.548;8.778;2022-12-05T02:05:59;29.8;;;17.9;;
51491;SDS011;37569;50.548;8.778;2022-12-05T02:10:58;24.5;;;14.6;;
51491;SDS011;37569;50.548;8.778;2022-12-05T02:15:59;24.2;;;15;;
51491;SDS011;37569;50.548;8.778;2022-12-05T02:21:09;22.8;;;14.6;;
51491;SDS011;37569;50.548;8.778;2022-12-05T02:26:18;22.7;;;14.2;;
51491;SDS011;37569;50.548;8.778;2022-12-05T02:31:00;23.3;;;14.3;;
51491;SDS011;37569;50.548;8.778;2022-12-05T02:36:00;25;;;14.6;;
51491;SDS011;37569;50.548;8.778;2022-12-05T02:41:01;25.7;;;15.7;;
51491;SDS011;37569;50.548;8.778;2022-12-05T02:45:59;21.7;;;14.3;;
51491;SDS011;37569;50.548;8.778;2022-12-05T02:50:59;23.3;;;14.4;;
51491;SDS011;37569;50.548;8.778;2022-12-05T02:55:59;22;;;13.7;;
51491;SDS011;37569;50.548;8.778;2022-12-05T03:00:59;23.4;;;14.3;;
51491;SDS011;37569;50.548;8.778;2022-12-05T03:06:01;24.2;;;14.9;;
51491;SDS011;37569;50.548;8.778;2022-12-05T03:11:00;21.6;;;14.1;;
51491;SDS011;37569;50.548;8.778;2022-12-05T03:16:01;23.7;;;14.7;;
51491;SDS011;37569;50.548;8.778;2022-12-05T03:21:01;22.3;;;13.9;;
51491;SDS011;37569;50.548;8.778;2022-12-05T03:26:03;21.1;;;13.5;;
51491;SDS011;37569;50.548;8.778;2022-12-05T03:31:01;21.5;;;14;;
51491;SDS011;37569;50.548;8.778;2022-12-05T03:36:01;22.9;;;14.3;;
51491;SDS011;37569;50.548;8.778;2022-12-05T03:41:05;22.8;;;14.2;;
51491;SDS011;37569;50.548;8.778;2022-12-05T03:46:02;24;;;14.5;;
51491;SDS011;37569;50.548;8.778;2022-12-05T03:51:01;25.7;;;14.4;;
51491;SDS011;37569;50.548;8.778;2022-12-05T03:56:03;24.8;;;14.7;;
51491;SDS011;37569;50.548;8.778;2022-12-05T04:01:01;22.1;;;14.2;;
51491;SDS011;37569;50.548;8.778;2022-12-05T04:06:01;23.7;;;14;;
51491;SDS011;37569;50.548;8.778;2022-12-05T04:11:02;24;;;14.3;;
51491;SDS011;37569;50.548;8.778;2022-12-05T04:16:02;22.3;;;13.7;;
51491;SDS011;37569;50.548;8.778;2022-12-05T04:21:02;24.6;;;14.1;;
51491;SDS011;37569;50.548;8.778;2022-12-05T04:26:03;24.4;;;14.7;;
51491;SDS011;37569;50.548;8.778;2022-12-05T04:31:03;25.8;;;14.9;;
51491;SDS011;37569;50.548;8.778;2022-12-05T04:36:03;25.4;;;14.6;;
51491;SDS011;37569;50.548;8.778;2022-12-05T04:41:03;24.6;;;14.6;;
51491;SDS011;37569;50.548;8.778;2022-12-05T04:46:03;24.4;;;14.3;;
51491;SDS011;37569;50.548;8.778;2022-12-05T04:51:03;27.1;;;14.1;;
51491;SDS011;37569;50.548;8.778;2022-12-05T04:56:03;29.1;;;14.8;;
51491;SDS011;37569;50.548;8.778;2022-12-05T05:01:04;38.6;;;14.9;;
51491;SDS011;37569;50.548;8.778;2022-12-05T05:06:03;44.3;;;15.2;;
51491;SDS011;37569;50.548;8.778;2022-12-05T05:11:05;28.7;;;14.8;;
51491;SDS011;37569;50.548;8.778;2022-12-05T05:16:04;30.9;;;14.8;;
51491;SDS011;37569;50.548;8.778;2022-12-05T05:21:03;26.8;;;14.8;;
51491;SDS011;37569;50.548;8.778;2022-12-05T05:26:04;28.9;;;14.8;;
51491;SDS011;37569;50.548;8.778;2022-12-05T05:31:04;24.3;;;14.1;;
51491;SDS011;37569;50.548;8.778;2022-12-05T05:36:04;30;;;15.5;;
51491;SDS011;37569;50.548;8.778;2022-12-05T05:41:04;30.1;;;15.2;;
51491;SDS011;37569;50.548;8.778;2022-12-05T05:46:04;36.9;;;16.4;;
51491;SDS011;37569;50.548;8.778;2022-12-05T05:51:05;34.3;;;15.8;;
51491;SDS011;37569;50.548;8.778;2022-12-05T05:56:05;34;;;17.1;;
51491;SDS011;37569;50.548;8.778;2022-12-05T06:01:05;34.7;;;16.4;;
51491;SDS011;37569;50.548;8.778;2022-12-05T06:06:06;29.8;;;15.7;;
51491;SDS011;37569;50.548;8.778;2022-12-05T06:11:05;29.2;;;15.9;;
51491;SDS011;37569;50.548;8.778;2022-12-05T06:16:06;31.5;;;16.3;;
51491;SDS011;37569;50.548;8.778;2022-12-05T06:21:05;35.4;;;17.5;;
51491;SDS011;37569;50.548;8.778;2022-12-05T06:26:09;29.4;;;16.1;;
51491;SDS011;37569;50.548;8.778;2022-12-05T06:31:06;28.7;;;15.6;;
51491;SDS011;37569;50.548;8.778;2022-12-05T06:36:06;29.1;;;15.1;;
51491;SDS011;37569;50.548;8.778;2022-12-05T06:41:06;28.9;;;14.6;;
51491;SDS011;37569;50.548;8.778;2022-12-05T06:46:07;27.7;;;14;;
51491;SDS011;37569;50.548;8.778;2022-12-05T06:51:07;26.1;;;13.5;;
51491;SDS011;37569;50.548;8.778;2022-12-05T06:56:08;26.4;;;13.6;;
51491;SDS011;37569;50.548;8.778;2022-12-05T07:01:08;25.7;;;14.3;;
51491;SDS011;37569;50.548;8.778;2022-12-05T07:06:07;25.6;;;14.2;;
51491;SDS011;37569;50.548;8.778;2022-12-05T07:11:07;25.3;;;14.2;;
51491;SDS011;37569;50.548;8.778;2022-12-05T07:16:07;25.7;;;15;;
51491;SDS011;37569;50.548;8.778;2022-12-05T07:21:08;30.2;;;15.6;;
51491;SDS011;37569;50.548;8.778;2022-12-05T07:26:08;28.4;;;16.1;;
51491;SDS011;37569;50.548;8.778;2022-12-05T07:31:08;26.8;;;15;;
51491;SDS011;37569;50.548;8.778;2022-12-05T07:36:08;28.2;;;16.9;;
51491;SDS011;37569;50.548;8.778;2022-12-05T07:41:08;29.9;;;15.8;;
51491;SDS011;37569;50.548;8.778;2022-12-05T07:46:08;28;;;15.5;;
51491;SDS011;37569;50.548;8.778;2022-12-05T07:51:08;26.4;;;14.6;;
51491;SDS011;37569;50.548;8.778;2022-12-05T07:56:09;27;;;15.5;;
51491;SDS011;37569;50.548;8.778;2022-12-05T08:01:09;28.8;;;15.6;;
51491;SDS011;37569;50.548;8.778;2022-12-05T08:06:09;39.9;;;23.9;;
51491;SDS011;37569;50.548;8.778;2022-12-05T08:11:09;36.9;;;20.6;;
51491;SDS011;37569;50.548;8.778;2022-12-05T08:16:09;32.7;;;19.6;;
51491;SDS011;37569;50.548;8.778;2022-12-05T08:21:10;31.6;;;18.3;;
51491;SDS011;37569;50.548;8.778;2022-12-05T08:26:10;34.3;;;17.8;;
51491;SDS011;37569;50.548;8.778;2022-12-05T08:31:10;31.9;;;17.7;;
51491;SDS011;37569;50.548;8.778;2022-12-05T08:36:10;27.4;;;15.6;;
51491;SDS011;37569;50.548;8.778;2022-12-05T08:41:10;32;;;16.4;;
51491;SDS011;37569;50.548;8.778;2022-12-05T08:46:10;27.7;;;15.6;;
51491;SDS011;37569;50.548;8.778;2022-12-05T08:51:10;26.8;;;15.4;;
51491;SDS011;37569;50.548;8.778;2022-12-05T08:56:10;27.8;;;15.5;;
51491;SDS011;37569;50.548;8.778;2022-12-05T09:01:11;31.7;;;17.4;;
51491;SDS011;37569;50.548;8.778;2022-12-05T09:06:11;31.2;;;16.2;;
51491;SDS011;37569;50.548;8.778;2022-12-05T09:11:12;34.5;;;17.2;;
51491;SDS011;37569;50.548;8.778;2022-12-05T09:16:11;33.1;;;18;;
51491;SDS011;37569;50.548;8.778;2022-12-05T09:21:12;34.7;;;17.2;;
51491;SDS011;37569;50.548;8.778;2022-12-05T09:26:12;39.6;;;18.3;;
51491;SDS011;37569;50.548;8.778;2022-12-05T09:31:12;51.5;;;18.7;;
51491;SDS011;37569;50.548;8.778;2022-12-05T09:36:13;38;;;17.9;;
51491;SDS011;37569;50.548;8.778;2022-12-05T09:41:14;38.1;;;19.1;;
51491;SDS011;37569;50.548;8.778;2022-12-05T09:46:14;45.3;;;20.1;;
51491;SDS011;37569;50.548;8.778;2022-12-05T09:51:12;38.9;;;18.6;;
51491;SDS011;37569;50.548;8.778;2022-12-05T09:56:16;35.8;;;19.2;;
51491;SDS011;37569;50.548;8.778;2022-12-05T10:01:19;50;;;19.2;;
51491;SDS011;37569;50.548;8.778;2022-12-05T10:06:14;40.1;;;19.1;;
51491;SDS011;37569;50.548;8.778;2022-12-05T10:11:15;36.8;;;17.4;;
51491;SDS011;37569;50.548;8.778;2022-12-05T10:16:15;36.4;;;18.2;;
51491;SDS011;37569;50.548;8.778;2022-12-05T10:21:14;35.1;;;18.4;;
51491;SDS011;37569;50.548;8.778;2022-12-05T10:26:14;33.5;;;18.2;;
51491;SDS011;37569;50.548;8.778;2022-12-05T10:31:14;35.5;;;18.4;;
51491;SDS011;37569;50.548;8.778;2022-12-05T10:36:14;31.7;;;17.6;;
51491;SDS011;37569;50.548;8.778;2022-12-05T10:41:14;35.1;;;17.2;;
51491;SDS011;37569;50.548;8.778;2022-12-05T10:46:15;32.1;;;17.6;;
51491;SDS011;37569;50.548;8.778;2022-12-05T10:51:16;32;;;17.3;;
51491;SDS011;37569;50.548;8.778;2022-12-05T10:56:47;31.4;;;17;;
51491;SDS011;37569;50.548;8.778;2022-12-05T11:01:15;26.8;;;15.7;;
51491;SDS011;37569;50.548;8.778;2022-12-05T11:06:16;28.4;;;16.9;;
51491;SDS011;37569;50.548;8.778;2022-12-05T11:11:17;30.7;;;16.5;;
51491;SDS011;37569;50.548;8.778;2022-12-05T11:16:17;26.2;;;15.4;;
51491;SDS011;37569;50.548;8.778;2022-12-05T11:21:16;25;;;14.9;;
51491;SDS011;37569;50.548;8.778;2022-12-05T11:26:17;24.5;;;15.1;;
51491;SDS011;37569;50.548;8.778;2022-12-05T11:31:21;24.3;;;15;;
51491;SDS011;37569;50.548;8.778;2022-12-05T11:36:17;25.2;;;14.7;;
51491;SDS011;37569;50.548;8.778;2022-12-05T11:41:23;26.2;;;15.3;;
51491;SDS011;37569;50.548;8.778;2022-12-05T11:46:19;23.3;;;14.3;;
51491;SDS011;37569;50.548;8.778;2022-12-05T11:51:21;23.3;;;14.1;;
51491;SDS011;37569;50.548;8.778;2022-12-05T11:56:21;19.7;;;12.8;;
51491;SDS011;37569;50.548;8.778;2022-12-05T12:01:19;18.5;;;12.8;;
51491;SDS011;37569;50.548;8.778;2022-12-05T12:06:21;18.2;;;12;;
51491;SDS011;37569;50.548;8.778;2022-12-05T12:11:19;13.5;;;9.9;;
51491;SDS011;37569;50.548;8.778;2022-12-05T12:16:20;11;;;8.5;;
51491;SDS011;37569;50.548;8.778;2022-12-05T12:21:20;10.6;;;7.8;;
51491;SDS011;37569;50.548;8.778;2022-12-05T12:26:20;9.5;;;7.3;;
51491;SDS011;37569;50.548;8.778;2022-12-05T12:31:24;8.2;;;6;;
51491;SDS011;37569;50.548;8.778;2022-12-05T12:36:21;8.4;;;6.4;;
51491;SDS011;37569;50.548;8.778;2022-12-05T12:41:23;7;;;5.6;;
51491;SDS011;37569;50.548;8.778;2022-12-05T12:46:24;7.8;;;5.9;;
51491;SDS011;37569;50.548;8.778;2022-12-05T12:51:20;7.2;;;6.4;;
51491;SDS011;37569;50.548;8.778;2022-12-05T12:56:24;6.9;;;6;;
51491;SDS011;37569;50.548;8.778;2022-12-05T13:01:23;8.4;;;6.1;;
51491;SDS011;37569;50.548;8.778;2022-12-05T13:06:22;7;;;6.3;;
51491;SDS011;37569;50.548;8.778;2022-12-05T13:11:21;7.4;;;5.9;;
51491;SDS011;37569;50.548;8.778;2022-12-05T13:16:22;8.3;;;6.1;;
51491;SDS011;37569;50.548;8.778;2022-12-05T13:21:21;6.5;;;5.7;;
51491;SDS011;37569;50.548;8.778;2022-12-05T13:26:21;5.8;;;5.2;;
51491;SDS011;37569;50.548;8.778;2022-12-05T13:31:33;7.1;;;5.6;;
51491;SDS011;37569;50.548;8.778;2022-12-05T13:36:22;6;;;5.2;;
51491;SDS011;37569;50.548;8.778;2022-12-05T13:41:23;7.5;;;5.9;;
51491;SDS011;37569;50.548;8.778;2022-12-05T13:46:24;7.9;;;6;;
51491;SDS011;37569;50.548;8.778;2022-12-05T13:51:24;8.7;;;6.4;;
51491;SDS011;37569;50.548;8.778;2022-12-05T13:56:24;7.4;;;6;;
51491;SDS011;37569;50.548;8.778;2022-12-05T14:01:55;7.9;;;6.5;;
51491;SDS011;37569;50.548;8.778;2022-12-05T14:06:43;7.6;;;5.9;;
51491;SDS011;37569;50.548;8.778;2022-12-05T14:11:24;7.9;;;6.5;;
51491;SDS011;37569;50.548;8.778;2022-12-05T14:21:32;7.8;;;6.5;;
51491;SDS011;37569;50.548;8.778;2022-12-05T14:26:30;8.5;;;6.9;;
51491;SDS011;37569;50.548;8.778;2022-12-05T14:31:29;8.6;;;7.1;;
51491;SDS011;37569;50.548;8.778;2022-12-05T14:36:25;7.8;;;6.1;;
51491;SDS011;37569;50.548;8.778;2022-12-05T14:41:26;9.8;;;6.3;;
51491;SDS011;37569;50.548;8.778;2022-12-05T14:46:26;7.2;;;6.2;;
51491;SDS011;37569;50.548;8.778;2022-12-05T14:51:41;7.2;;;6;;
51491;SDS011;37569;50.548;8.778;2022-12-05T14:56:26;7.2;;;6.1;;
51491;SDS011;37569;50.548;8.778;2022-12-05T15:01:26;7.9;;;6.4;;
51491;SDS011;37569;50.548;8.778;2022-12-05T15:06:26;9.4;;;7.2;;
51491;SDS011;37569;50.548;8.778;2022-12-05T15:11:26;14.4;;;10.7;;
51491;SDS011;37569;50.548;8.778;2022-12-05T15:16:27;9.7;;;7.3;;
51491;SDS011;37569;50.548;8.778;2022-12-05T15:21:28;9.4;;;6.7;;
51491;SDS011;37569;50.548;8.778;2022-12-05T15:26:27;9.5;;;7.2;;
51491;SDS011;37569;50.548;8.778;2022-12-05T15:31:29;14.9;;;9.8;;
51491;SDS011;37569;50.548;8.778;2022-12-05T15:36:28;10.8;;;8.2;;
51491;SDS011;37569;50.548;8.778;2022-12-05T15:41:27;13;;;9.5;;
51491;SDS011;37569;50.548;8.778;2022-12-05T15:46:28;12.3;;;9.6;;
51491;SDS011;37569;50.548;8.778;2022-12-05T15:51:30;11.2;;;8.5;;
51491;SDS011;37569;50.548;8.778;2022-12-05T15:56:29;11.3;;;8.4;;
51491;SDS011;37569;50.548;8.778;2022-12-05T16:01:28;10.3;;;7.6;;
51491;SDS011;37569;50.548;8.778;2022-12-05T16:06:29;9.1;;;6.9;;
51491;SDS011;37569;50.548;8.778;2022-12-05T16:11:28;10.2;;;7.9;;
51491;SDS011;37569;50.548;8.778;2022-12-05T16:16:30;9.8;;;8.3;;
51491;SDS011;37569;50.548;8.778;2022-12-05T16:21:30;11;;;8;;
51491;SDS011;37569;50.548;8.778;2022-12-05T16:26:29;11.6;;;7.8;;
51491;SDS011;37569;50.548;8.778;2022-12-05T16:31:29;10.4;;;7.7;;
51491;SDS011;37569;50.548;8.778;2022-12-05T16:36:29;9.5;;;7.5;;
51491;SDS011;37569;50.548;8.778;2022-12-05T16:41:31;11;;;7.6;;
51491;SDS011;37569;50.548;8.778;2022-12-05T16:46:39;11.1;;;7.8;;
51491;SDS011;37569;50.548;8.778;2022-12-05T16:51:30;12.2;;;8.4;;
51491;SDS011;37569;50.548;8.778;2022-12-05T16:56:30;14;;;9.6;;
51491;SDS011;37569;50.548;8.778;2022-12-05T17:01:30;12.4;;;8.6;;
51491;SDS011;37569;50.548;8.778;2022-12-05T17:06:31;12.9;;;8.9;;
51491;SDS011;37569;50.548;8.778;2022-12-05T17:11:32;12.6;;;9.7;;
51491;SDS011;37569;50.548;8.778;2022-12-05T17:16:31;14;;;9.6;;
51491;SDS011;37569;50.548;8.778;2022-12-05T17:21:32;13.8;;;9.3;;
51491;SDS011;37569;50.548;8.778;2022-12-05T17:26:31;14.9;;;9.8;;
51491;SDS011;37569;50.548;8.778;2022-12-05T17:31:32;15;;;10.4;;
51491;SDS011;37569;50.548;8.778;2022-12-05T17:36:32;16;;;11.4;;
51491;SDS011;37569;50.548;8.778;2022-12-05T17:41:32;18.5;;;11.1;;
51491;SDS011;37569;50.548;8.778;2022-12-05T17:46:32;16;;;10.7;;
51491;SDS011;37569;50.548;8.778;2022-12-05T17:51:33;15.3;;;10.7;;
51491;SDS011;37569;50.548;8.778;2022-12-05T17:56:33;16.3;;;10.8;;
51491;SDS011;37569;50.548;8.778;2022-12-05T18:01:33;14.9;;;10.5;;
51491;SDS011;37569;50.548;8.778;2022-12-05T18:06:33;12.2;;;9.2;;
51491;SDS011;37569;50.548;8.778;2022-12-05T18:11:33;13.2;;;9.2;;
51491;SDS011;37569;50.548;8.778;2022-12-05T18:16:34;12.8;;;8.8;;
51491;SDS011;37569;50.548;8.778;2022-12-05T18:21:34;15.4;;;10.5;;
51491;SDS011;37569;50.548;8.778;2022-12-05T18:26:34;42.1;;;21.4;;
51491;SDS011;37569;50.548;8.778;2022-12-05T18:31:34;51.6;;;24.5;;
51491;SDS011;37569;50.548;8.778;2022-12-05T18:36:34;54.3;;;25.7;;
51491;SDS011;37569;50.548;8.778;2022-12-05T18:41:35;26.9;;;14.9;;
51491;SDS011;37569;50.548;8.778;2022-12-05T18:46:35;18.2;;;11.1;;
51491;SDS011;37569;50.548;8.778;2022-12-05T18:51:35;39.7;;;21.2;;
51491;SDS011;37569;50.548;8.778;2022-12-05T18:56:35;22.1;;;13.1;;
51491;SDS011;37569;50.548;8.778;2022-12-05T19:01:36;19.3;;;11.8;;
51491;SDS011;37569;50.548;8.778;2022-12-05T19:06:36;36.9;;;19.4;;
51491;SDS011;37569;50.548;8.778;2022-12-05T19:11:36;22.5;;;12.9;;
51491;SDS011;37569;50.548;8.778;2022-12-05T19:16:36;18.3;;;10.8;;
51491;SDS011;37569;50.548;8.778;2022-12-05T19:21:36;12.3;;;9.1;;
51491;SDS011;37569;50.548;8.778;2022-12-05T19:26:36;15.8;;;10.5;;
51491;SDS011;37569;50.548;8.778;2022-12-05T19:31:37;25;;;14.6;;
51491;SDS011;37569;50.548;8.778;2022-12-05T19:36:37;20.1;;;12.3;;
51491;SDS011;37569;50.548;8.778;2022-12-05T19:41:37;18.7;;;11.8;;
51491;SDS011;37569;50.548;8.778;2022-12-05T19:46:37;22.4;;;13.8;;
51491;SDS011;37569;50.548;8.778;2022-12-05T19:51:37;34.8;;;19.4;;
51491;SDS011;37569;50.548;8.778;2022-12-05T19:56:37;25.1;;;15.4;;
51491;SDS011;37569;50.548;8.778;2022-12-05T20:01:38;15.6;;;10.5;;
51491;SDS011;37569;50.548;8.778;2022-12-05T20:06:39;13.9;;;9.6;;
51491;SDS011;37569;50.548;8.778;2022-12-05T20:11:39;12.8;;;9.4;;
51491;SDS011;37569;50.548;8.778;2022-12-05T20:16:38;12.3;;;8.9;;
51491;SDS011;37569;50.548;8.778;2022-12-05T20:21:38;12.3;;;8.6;;
51491;SDS011;37569;50.548;8.778;2022-12-05T20:26:40;10.3;;;7.5;;
51491;SDS011;37569;50.548;8.778;2022-12-05T20:31:39;9.3;;;7.5;;
51491;SDS011;37569;50.548;8.778;2022-12-05T20:36:39;10.6;;;7.9;;
51491;SDS011;37569;50.548;8.778;2022-12-05T20:41:39;9.9;;;7.3;;
51491;SDS011;37569;50.548;8.778;2022-12-05T20:46:39;12;;;7.8;;
51491;SDS011;37569;50.548;8.778;2022-12-05T20:51:40;9.3;;;7.2;;
51491;SDS011;37569;50.548;8.778;2022-12-05T20:56:40;8.5;;;6.7;;
51491;SDS011;37569;50.548;8.778;2022-12-05T21:01:40;9;;;6.8;;
51491;SDS011;37569;50.548;8.778;2022-12-05T21:06:40;9.6;;;7.1;;
51491;SDS011;37569;50.548;8.778;2022-12-05T21:11:40;9.5;;;7.2;;
51491;SDS011;37569;50.548;8.778;2022-12-05T21:16:40;9;;;7.1;;
51491;SDS011;37569;50.548;8.778;2022-12-05T21:21:41;10.1;;;7.8;;
51491;SDS011;37569;50.548;8.778;2022-12-05T21:26:41;9.1;;;6.9;;
51491;SDS011;37569;50.548;8.778;2022-12-05T21:31:41;9.6;;;6.8;;
51491;SDS011;37569;50.548;8.778;2022-12-05T21:36:42;7.9;;;5.8;;
51491;SDS011;37569;50.548;8.778;2022-12-05T21:41:42;8.2;;;5.6;;
51491;SDS011;37569;50.548;8.778;2022-12-05T21:46:42;7.2;;;5.5;;
51491;SDS011;37569;50.548;8.778;2022-12-05T21:51:42;6.5;;;5.4;;
51491;SDS011;37569;50.548;8.778;2022-12-05T21:56:42;6.6;;;5.3;;
51491;SDS011;37569;50.548;8.778;2022-12-05T22:01:42;5.9;;;4.9;;
51491;SDS011;37569;50.548;8.778;2022-12-05T22:06:43;6;;;4.9;;
51491;SDS011;37569;50.548;8.778;2022-12-05T22:11:43;6.1;;;4.8;;
51491;SDS011;37569;50.548;8.778;2022-12-05T22:16:43;5.8;;;4.8;;
51491;SDS011;37569;50.548;8.778;2022-12-05T22:21:43;5.4;;;4.8;;
51491;SDS011;37569;50.548;8.778;2022-12-05T22:26:44;6.3;;;4.9;;
51491;SDS011;37569;50.548;8.778;2022-12-05T22:31:44;5.2;;;4.6;;
51491;SDS011;37569;50.548;8.778;2022-12-05T22:36:44;6.2;;;4.8;;
51491;SDS011;37569;50.548;8.778;2022-12-05T22:41:44;5.2;;;4.5;;
51491;SDS011;37569;50.548;8.778;2022-12-05T22:46:44;6;;;4.9;;
51491;SDS011;37569;50.548;8.778;2022-12-05T22:51:45;5.8;;;4.8;;
51491;SDS011;37569;50.548;8.778;2022-12-05T22:56:45;5.9;;;5;;
51491;SDS011;37569;50.548;8.778;2022-12-05T23:01:45;7.8;;;5.7;;
51491;SDS011;37569;50.548;8.778;2022-12-05T23:06:45;6.6;;;5.2;;
51491;SDS011;37569;50.548;8.778;2022-12-05T23:11:47;8.2;;;6.3;;
51491;SDS011;37569;50.548;8.778;2022-12-05T23:16:45;8.1;;;5.9;;
51491;SDS011;37569;50.548;8.778;2022-12-05T23:21:46;7.4;;;6.1;;
51491;SDS011;37569;50.548;8.778;2022-12-05T23:26:46;7.3;;;5.8;;
51491;SDS011;37569;50.548;8.778;2022-12-05T23:31:46;8.8;;;6.6;;
51491;SDS011;37569;50.548;8.778;2022-12-05T23:36:46;7.9;;;6;;
51491;SDS011;37569;50.548;8.778;2022-12-05T23:41:46;11.5;;;6.6;;
51491;SDS011;37569;50.548;8.778;2022-12-05T23:46:47;8.3;;;6.1;;
51491;SDS011;37569;50.548;8.778;2022-12-05T23:51:47;7.6;;;6.4;;
51491;SDS011;37569;50.548;8.778;2022-12-05T23:56:47;7.9;;;6.5;;
